createdAt,value
2019-05-17T00:01:16.610Z,100056.11
2019-05-17T00:03:46.959Z,100053.21
2019-05-17T00:06:16.908Z,100052.88
2019-05-17T00:08:47.114Z,100048.55
2019-05-17T00:11:16.663Z,100042.69
2019-05-17T00:13:46.495Z,100037.21
2019-05-17T00:16:14.267Z,100036.65
2019-05-17T00:18:42.432Z,100029.23
2019-05-17T00:21:10.583Z,100025.70
2019-05-17T00:23:38.746Z,100028.33
2019-05-17T00:26:07.263Z,100022.20
2019-05-17T00:28:37.494Z,100013.78
2019-05-17T00:31:06.617Z,100020.22
2019-05-17T00:33:36.708Z,100011.06
2019-05-17T00:36:07.046Z,100004.42
2019-05-17T00:38:47.535Z,100009.22
2019-05-17T00:41:06.916Z,100003.74
2019-05-17T00:43:36.693Z,100003.76
2019-05-17T00:46:06.595Z,99999.14
2019-05-17T00:48:34.317Z,99999.36
2019-05-17T00:51:02.673Z,99994.16
2019-05-17T00:53:31.085Z,99998.11
2019-05-17T00:55:59.809Z,99994.74
2019-05-17T00:58:27.961Z,99999.12
2019-05-17T01:00:57.099Z,99990.20
2019-05-17T01:03:26.994Z,99995.28
2019-05-17T01:05:56.735Z,99998.63
2019-05-17T01:08:26.570Z,99995.88
2019-05-17T01:10:56.588Z,99985.63
2019-05-17T01:13:26.722Z,99990.03
2019-05-17T01:15:56.619Z,99987.69
2019-05-17T01:18:26.773Z,99989.55
2019-05-17T01:20:56.666Z,99987.18
2019-05-17T01:23:24.401Z,99979.70
2019-05-17T01:25:52.519Z,99978.76
2019-05-17T01:28:20.660Z,99975.94
2019-05-17T01:30:48.811Z,99972.44
2019-05-17T01:33:17.256Z,99975.28
2019-05-17T01:35:46.586Z,99973.84
2019-05-17T01:38:14.847Z,99967.91
2019-05-17T01:40:43.077Z,99970.30
2019-05-17T01:43:11.187Z,99972.32
2019-05-17T01:45:39.348Z,99971.73
2019-05-17T01:48:07.632Z,99971.84
2019-05-17T01:50:37.346Z,99965.15
2019-05-17T01:53:07.407Z,99964.16
2019-05-17T01:55:37.561Z,99960.74
2019-05-17T01:58:07.249Z,99961.59
2019-05-17T02:00:37.578Z,99960.58
2019-05-17T02:03:07.069Z,99962.00
2019-05-17T02:05:37.325Z,99955.27
2019-05-17T02:08:06.592Z,99950.95
2019-05-17T02:10:37.288Z,99948.05
2019-05-17T02:13:06.559Z,99947.93
2019-05-17T02:15:37.472Z,99942.06
2019-05-17T02:18:07.064Z,99936.08
2019-05-17T02:20:37.401Z,99940.04
2019-05-17T02:23:07.019Z,99936.84
2019-05-17T02:25:36.884Z,99933.83
2019-05-17T02:28:04.533Z,99932.36
2019-05-17T02:30:33.710Z,99935.34
2019-05-17T02:33:03.803Z,99937.36
2019-05-17T02:35:33.603Z,99931.16
2019-05-17T02:38:02.927Z,99928.50
2019-05-17T02:40:34.175Z,99922.42
2019-05-17T02:43:03.108Z,99917.60
2019-05-17T02:45:32.780Z,99913.75
2019-05-17T02:48:03.611Z,99914.88
2019-05-17T02:50:33.155Z,99917.52
2019-05-17T02:53:03.919Z,99925.19
2019-05-17T02:55:32.407Z,99915.47
2019-05-17T02:58:02.893Z,99912.64
2019-05-17T03:00:34.028Z,99913.95
2019-05-17T03:03:03.470Z,99912.41
2019-05-17T03:05:33.427Z,99909.45
2019-05-17T03:08:03.640Z,99903.45
2019-05-17T03:10:33.212Z,99908.15
2019-05-17T03:12:59.796Z,99903.53
2019-05-17T03:15:27.925Z,99914.63
2019-05-17T03:17:56.010Z,99909.87
2019-05-17T03:20:24.204Z,99910.39
2019-05-17T03:22:52.798Z,99914.22
2019-05-17T03:25:23.891Z,99909.52
2019-05-17T03:27:53.657Z,99910.87
2019-05-17T03:30:25.900Z,99911.51
2019-05-17T03:32:56.225Z,99909.15
2019-05-17T03:35:25.705Z,99910.61
2019-05-17T03:37:53.255Z,99908.86
2019-05-17T03:40:36.421Z,99907.92
2019-05-17T03:42:53.546Z,99908.67
2019-05-17T03:45:22.809Z,99910.17
2019-05-17T03:47:52.998Z,99910.39
2019-05-17T03:50:22.667Z,99904.61
2019-05-17T03:52:53.294Z,99902.99
2019-05-17T03:55:19.725Z,99902.91
2019-05-17T03:57:47.915Z,99901.42
2019-05-17T04:00:16.697Z,99912.64
2019-05-17T04:02:45.072Z,99907.79
2019-05-17T04:05:13.661Z,99906.83
2019-05-17T04:07:43.519Z,99903.91
2019-05-17T04:10:15.167Z,99904.88
2019-05-17T04:12:43.912Z,99896.17
2019-05-17T04:15:13.391Z,99897.03
2019-05-17T04:17:44.001Z,99900.81
2019-05-17T04:20:13.547Z,99902.44
2019-05-17T04:22:44.127Z,99903.15
2019-05-17T04:25:13.449Z,99905.39
2019-05-17T04:27:43.620Z,99902.15
2019-05-17T04:30:12.605Z,99896.78
2019-05-17T04:32:43.628Z,99900.42
2019-05-17T04:35:12.970Z,99906.45
2019-05-17T04:37:43.880Z,99904.70
2019-05-17T04:40:13.938Z,99909.40
2019-05-17T04:42:43.929Z,99907.33
2019-05-17T04:45:12.683Z,99442.17
2019-05-17T04:47:44.262Z,99905.90
2019-05-17T04:50:13.445Z,99902.72
2019-05-17T04:52:42.923Z,99901.08
2019-05-17T04:55:13.381Z,99901.08
2019-05-17T04:57:43.926Z,99894.21
2019-05-17T05:00:12.882Z,99898.83
2019-05-17T05:02:43.689Z,99895.34
2019-05-17T05:05:13.416Z,99899.53
2019-05-17T05:07:43.138Z,99894.06
2019-05-17T05:10:13.430Z,99893.20
2019-05-17T05:12:43.454Z,99893.75
2019-05-17T05:15:12.172Z,99890.27
2019-05-17T05:17:42.542Z,99890.25
2019-05-17T05:20:13.240Z,99891.02
2019-05-17T05:22:42.624Z,99894.03
2019-05-17T05:25:12.405Z,99890.23
2019-05-17T05:27:42.293Z,99889.94
2019-05-17T05:30:12.075Z,99892.25
2019-05-17T05:32:39.424Z,99889.63
2019-05-17T05:35:08.195Z,99893.22
2019-05-17T05:37:36.357Z,99889.03
2019-05-17T05:40:05.471Z,99886.60
2019-05-17T05:42:33.688Z,99887.41
2019-05-17T05:45:03.142Z,99886.89
2019-05-17T05:47:32.373Z,99892.23
2019-05-17T05:50:01.820Z,99884.60
2019-05-17T05:52:32.257Z,99880.21
2019-05-17T05:55:01.535Z,99885.02
2019-05-17T05:57:32.063Z,99884.08
2019-05-17T06:00:02.028Z,99885.77
2019-05-17T06:02:29.552Z,99890.39
2019-05-17T06:04:57.654Z,99886.52
2019-05-17T06:07:25.818Z,99879.02
2019-05-17T06:09:53.959Z,99885.52
2019-05-17T06:12:27.187Z,99890.92
2019-05-17T06:14:52.459Z,99885.71
2019-05-17T06:17:21.598Z,99889.11
2019-05-17T06:19:51.692Z,99890.06
2019-05-17T06:22:19.734Z,99887.00
2019-05-17T06:24:47.842Z,99885.38
2019-05-17T06:27:15.979Z,99894.17
2019-05-17T06:29:44.106Z,99887.81
2019-05-17T06:32:12.241Z,99887.19
2019-05-17T06:34:42.223Z,99887.86
2019-05-17T06:37:12.720Z,99894.08
2019-05-17T06:39:41.970Z,99892.88
2019-05-17T06:42:12.092Z,99896.58
2019-05-17T06:44:41.769Z,99889.00
2019-05-17T06:47:11.967Z,99890.02
2019-05-17T06:49:42.222Z,99883.78
2019-05-17T06:52:11.639Z,99873.81
2019-05-17T06:54:41.767Z,99877.88
2019-05-17T06:57:09.706Z,99874.36
2019-05-17T06:59:37.923Z,99867.41
2019-05-17T07:02:06.122Z,99865.27
2019-05-17T07:04:34.380Z,99870.09
2019-05-17T07:07:20.847Z,99864.67
2019-05-17T07:09:49.686Z,99864.20
2019-05-17T07:12:20.227Z,99864.50
2019-05-17T07:14:47.891Z,99864.53
2019-05-17T07:17:16.026Z,99862.81
2019-05-17T07:19:44.170Z,99867.16
2019-05-17T07:22:12.346Z,99861.28
2019-05-17T07:24:40.470Z,99862.01
2019-05-17T07:27:10.004Z,99866.77
2019-05-17T07:29:40.374Z,99861.91
2019-05-17T07:32:09.822Z,99864.53
2019-05-17T07:34:40.152Z,99864.15
2019-05-17T07:37:07.505Z,99863.12
2019-05-17T07:39:39.280Z,99858.12
2019-05-17T07:42:06.393Z,99860.77
2019-05-17T07:44:34.607Z,99851.80
2019-05-17T07:47:02.740Z,99848.05
2019-05-17T07:49:31.093Z,99852.25
2019-05-17T07:52:00.734Z,99858.20
2019-05-17T07:54:30.313Z,99855.45
2019-05-17T07:57:00.248Z,99858.23
2019-05-17T07:59:29.429Z,99850.88
2019-05-17T08:01:59.694Z,99845.34
2019-05-17T08:04:29.922Z,99843.92
2019-05-17T08:06:59.782Z,99834.58
2019-05-17T08:09:30.071Z,99837.80
2019-05-17T08:11:59.752Z,99830.48
2019-05-17T08:14:32.918Z,99832.47
2019-05-17T08:16:59.907Z,99833.20
2019-05-17T08:19:29.750Z,99831.94
2019-05-17T08:21:56.846Z,99829.95
2019-05-17T08:24:24.969Z,99825.13
2019-05-17T08:26:54.545Z,99824.16
2019-05-17T08:29:22.713Z,99819.92
2019-05-17T08:31:50.869Z,99820.84
2019-05-17T08:34:19.881Z,99812.85
2019-05-17T08:36:49.853Z,99817.33
2019-05-17T08:39:19.809Z,99817.22
2019-05-17T08:41:49.772Z,99809.30
2019-05-17T08:44:19.250Z,99815.59
2019-05-17T08:46:47.507Z,99813.78
2019-05-17T08:49:15.670Z,99813.67
2019-05-17T08:51:43.825Z,99814.75
2019-05-17T08:54:11.947Z,99822.50
2019-05-17T08:56:40.500Z,99813.75
2019-05-17T08:59:09.635Z,99813.23
2019-05-17T09:01:39.256Z,99818.13
2019-05-17T09:04:09.281Z,99808.63
2019-05-17T09:06:39.586Z,99809.30
2019-05-17T09:09:09.982Z,99806.31
2019-05-17T09:11:39.553Z,99806.55
2019-05-17T09:14:10.312Z,99806.84
2019-05-17T09:16:40.103Z,99795.19
2019-05-17T09:19:09.946Z,99795.20
2019-05-17T09:21:39.587Z,99800.30
2019-05-17T09:24:07.365Z,99801.50
2019-05-17T09:26:35.532Z,99803.32
2019-05-17T09:29:04.321Z,99799.83
2019-05-17T09:31:32.479Z,99797.92
2019-05-17T09:34:00.632Z,99792.96
2019-05-17T09:36:30.349Z,99788.81
2019-05-17T09:39:00.122Z,99790.34
2019-05-17T09:41:29.368Z,99795.57
2019-05-17T09:44:09.505Z,99485.78
2019-05-17T09:46:30.076Z,99789.45
2019-05-17T09:48:57.467Z,99792.73
2019-05-17T09:51:25.656Z,99783.02
2019-05-17T09:53:53.789Z,99783.22
2019-05-17T09:56:21.937Z,99784.67
2019-05-17T09:58:50.046Z,99777.71
2019-05-17T10:01:20.757Z,99772.02
2019-05-17T10:03:50.528Z,99775.19
2019-05-17T10:06:20.069Z,99777.05
2019-05-17T10:08:49.517Z,99774.63
2019-05-17T10:11:20.083Z,99767.55
2019-05-17T10:13:49.515Z,99770.30
2019-05-17T10:16:20.037Z,99765.05
2019-05-17T10:18:47.550Z,99760.41
2019-05-17T10:21:15.668Z,99763.37
2019-05-17T10:23:43.806Z,99761.64
2019-05-17T10:26:11.922Z,99756.07
2019-05-17T10:28:40.180Z,99751.53
2019-05-17T10:31:11.651Z,99744.63
2019-05-17T10:33:40.097Z,99748.48
2019-05-17T10:36:08.552Z,99745.48
2019-05-17T10:38:36.794Z,99742.99
2019-05-17T10:41:04.944Z,99744.77
2019-05-17T10:43:33.052Z,99740.94
2019-05-17T10:46:01.201Z,99740.01
2019-05-17T10:48:30.033Z,99740.53
2019-05-17T10:51:00.412Z,99739.02
2019-05-17T10:53:29.712Z,99738.15
2019-05-17T10:56:00.430Z,99737.44
2019-05-17T10:58:29.687Z,99735.53
2019-05-17T11:01:00.587Z,99732.66
2019-05-17T11:03:29.664Z,99730.59
2019-05-17T11:05:59.748Z,99739.35
2019-05-17T11:08:27.828Z,99734.22
2019-05-17T11:10:55.963Z,99733.67
2019-05-17T11:13:24.154Z,99724.05
2019-05-17T11:15:53.245Z,99729.34
2019-05-17T11:18:21.351Z,99731.17
2019-05-17T11:20:49.543Z,99734.61
2019-05-17T11:23:17.661Z,99729.91
2019-05-17T11:25:46.701Z,99724.05
2019-05-17T11:28:15.158Z,99723.14
2019-05-17T11:30:43.284Z,99721.75
2019-05-17T11:33:11.462Z,99725.33
2019-05-17T11:35:39.646Z,99725.33
2019-05-17T11:38:07.809Z,99729.52
2019-05-17T11:40:35.981Z,99728.30
2019-05-17T11:43:04.081Z,99725.51
2019-05-17T11:45:33.012Z,99726.22
2019-05-17T11:48:01.372Z,99721.54
2019-05-17T11:50:29.591Z,99720.46
2019-05-17T11:52:57.779Z,99720.46
2019-05-17T11:55:25.906Z,99728.61
2019-05-17T11:57:56.237Z,99731.67
2019-05-17T12:00:24.431Z,99720.13
2019-05-17T12:02:52.569Z,99715.86
2019-05-17T12:05:20.766Z,99717.39
2019-05-17T12:07:48.966Z,99724.02
2019-05-17T12:10:18.903Z,99724.86
2019-05-17T12:12:47.041Z,99724.02
2019-05-17T12:15:15.393Z,99722.27
2019-05-17T12:17:43.595Z,99719.05
2019-05-17T12:20:12.131Z,99714.91
2019-05-17T12:22:40.431Z,99711.92
2019-05-17T12:25:09.640Z,99712.68
2019-05-17T12:27:38.021Z,99711.66
2019-05-17T12:30:07.547Z,99715.41
2019-05-17T12:32:35.780Z,99713.70
2019-05-17T12:35:04.365Z,99709.64
2019-05-17T12:37:32.642Z,99713.19
2019-05-17T12:40:01.019Z,99711.92
2019-05-17T12:42:29.294Z,99705.79
2019-05-17T12:44:57.481Z,99708.33
2019-05-17T12:47:25.770Z,99706.36
2019-05-17T12:49:54.085Z,99705.09
2019-05-17T12:52:22.192Z,99712.19
2019-05-17T12:54:50.310Z,99708.84
2019-05-17T12:57:18.449Z,99708.84
2019-05-17T12:59:46.586Z,99703.66
2019-05-17T13:02:14.880Z,99709.42
2019-05-17T13:04:43.035Z,99709.04
2019-05-17T13:07:11.248Z,99709.04
2019-05-17T13:09:39.402Z,99700.77
2019-05-17T13:12:07.528Z,99700.77
2019-05-17T13:14:35.686Z,99708.03
2019-05-17T13:17:03.954Z,99702.62
2019-05-17T13:19:32.156Z,99699.52
2019-05-17T13:22:00.243Z,99699.52
2019-05-17T13:24:28.443Z,99700.58
2019-05-17T13:26:56.567Z,99699.27
2019-05-17T13:29:24.692Z,99697.06
2019-05-17T13:31:52.843Z,99698.70
2019-05-17T13:34:20.995Z,99703.14
2019-05-17T13:36:49.108Z,99698.61
2019-05-17T13:39:17.280Z,99689.19
2019-05-17T13:41:45.389Z,99699.98
2019-05-17T13:44:13.557Z,99699.03
2019-05-17T13:46:41.770Z,99700.18
2019-05-17T13:49:09.929Z,99692.80
2019-05-17T13:51:38.047Z,99696.47
2019-05-17T13:54:06.278Z,99690.19
2019-05-17T13:56:34.527Z,99681.55
2019-05-17T13:59:02.799Z,99687.06
2019-05-17T14:01:30.906Z,99678.20
2019-05-17T14:03:59.012Z,99686.53
2019-05-17T14:06:27.142Z,99683.80
2019-05-17T14:08:55.327Z,99685.22
2019-05-17T14:11:23.450Z,99680.38
2019-05-17T14:13:51.688Z,99679.02
2019-05-17T14:16:19.921Z,99678.23
2019-05-17T14:18:48.168Z,99684.53
2019-05-17T14:21:16.361Z,99676.10
2019-05-17T14:23:44.549Z,99673.92
2019-05-17T14:26:12.712Z,99676.30
2019-05-17T14:28:40.888Z,99667.28
2019-05-17T14:31:09.051Z,99675.97
2019-05-17T14:33:37.244Z,99676.00
2019-05-17T14:36:05.409Z,99673.97
2019-05-17T14:38:33.629Z,99670.91
2019-05-17T14:41:07.914Z,99661.85
2019-05-17T14:43:31.791Z,99671.34
2019-05-17T14:46:00.146Z,99666.66
2019-05-17T14:48:28.263Z,99666.34
2019-05-17T14:50:56.418Z,99662.19
2019-05-17T14:53:24.564Z,99655.89
2019-05-17T14:55:52.703Z,99660.78
2019-05-17T14:58:20.924Z,99661.05
2019-05-17T15:00:49.086Z,99664.50
2019-05-17T15:03:17.339Z,99666.06
2019-05-17T15:05:45.582Z,99658.92
2019-05-17T15:08:13.841Z,99660.74
2019-05-17T15:10:42.082Z,99657.17
2019-05-17T15:13:10.289Z,99653.97
2019-05-17T15:15:38.479Z,99661.66
2019-05-17T15:18:09.456Z,99655.34
2019-05-17T15:20:36.511Z,99659.34
2019-05-17T15:23:04.808Z,99661.50
2019-05-17T15:25:33.068Z,99661.91
2019-05-17T15:28:01.183Z,99662.50
2019-05-17T15:30:29.333Z,99654.84
2019-05-17T15:32:57.455Z,99662.56
2019-05-17T15:35:25.889Z,99652.59
2019-05-17T15:37:54.111Z,99656.02
2019-05-17T15:40:22.480Z,99659.78
2019-05-17T15:42:50.649Z,99659.19
2019-05-17T15:45:18.787Z,99655.75
2019-05-17T15:47:46.939Z,99659.16
2019-05-17T15:50:15.213Z,99659.94
2019-05-17T15:52:43.351Z,99655.94
2019-05-17T15:55:11.700Z,99652.03
2019-05-17T15:57:39.912Z,99655.08
2019-05-17T16:00:08.954Z,99652.11
2019-05-17T16:02:37.138Z,99655.80
2019-05-17T16:05:06.811Z,99654.10
2019-05-17T16:07:34.998Z,99647.43
2019-05-17T16:10:03.192Z,99642.95
2019-05-17T16:12:31.334Z,99642.27
2019-05-17T16:14:59.465Z,99637.53
2019-05-17T16:17:27.659Z,99636.98
2019-05-17T16:19:55.836Z,99635.52
2019-05-17T16:22:23.940Z,99636.39
2019-05-17T16:24:52.077Z,99635.57
2019-05-17T16:27:20.247Z,99636.09
2019-05-17T16:29:48.355Z,99636.67
2019-05-17T16:32:16.553Z,99633.61
2019-05-17T16:34:44.658Z,99621.48
2019-05-17T16:37:12.810Z,99632.30
2019-05-17T16:39:41.114Z,99618.48
2019-05-17T16:42:09.254Z,99624.59
2019-05-17T16:44:37.416Z,99626.94
2019-05-17T16:47:05.676Z,99615.96
2019-05-17T16:49:33.836Z,99614.43
2019-05-17T16:52:01.951Z,99621.44
2019-05-17T16:54:30.306Z,99622.63
2019-05-17T16:56:58.668Z,99614.01
2019-05-17T16:59:26.831Z,99616.86
2019-05-17T17:01:55.441Z,99613.73
2019-05-17T17:04:23.499Z,99615.92
2019-05-17T17:06:51.682Z,99618.34
2019-05-17T17:09:19.986Z,99619.95
2019-05-17T17:11:48.190Z,99621.10
2019-05-17T17:14:16.394Z,99621.72
2019-05-17T17:16:44.569Z,99622.19
2019-05-17T17:19:12.714Z,99612.34
2019-05-17T17:21:40.818Z,99607.26
2019-05-17T17:24:09.125Z,99608.64
2019-05-17T17:26:37.265Z,99612.94
2019-05-17T17:29:05.702Z,99616.48
2019-05-17T17:31:33.894Z,99610.35
2019-05-17T17:34:01.984Z,99610.05
2019-05-17T17:36:30.201Z,99616.88
2019-05-17T17:38:58.363Z,99611.95
2019-05-17T17:41:26.964Z,99606.38
2019-05-17T17:43:58.680Z,99613.76
2019-05-17T17:46:25.192Z,99610.70
2019-05-17T17:48:53.315Z,99613.56
2019-05-17T17:51:21.472Z,99607.29
2019-05-17T17:53:49.812Z,99612.47
2019-05-17T17:56:18.065Z,99611.48
2019-05-17T17:58:46.285Z,99393.61
2019-05-17T18:01:14.443Z,99602.58
2019-05-17T18:03:42.558Z,99602.71
2019-05-17T18:06:10.658Z,99606.59
2019-05-17T18:08:39.172Z,99600.77
2019-05-17T18:11:07.425Z,99608.86
2019-05-17T18:13:35.628Z,99610.20
2019-05-17T18:16:03.866Z,99609.45
2019-05-17T18:18:32.274Z,99611.80
2019-05-17T18:21:00.402Z,99605.36
2019-05-17T18:23:28.516Z,99605.92
2019-05-17T18:25:56.784Z,99613.41
2019-05-17T18:28:25.006Z,99614.88
2019-05-17T18:30:53.117Z,99615.67
2019-05-17T18:33:21.370Z,99616.27
2019-05-17T18:35:49.535Z,99613.16
2019-05-17T18:38:19.850Z,99611.83
2019-05-17T18:40:48.177Z,99607.06
2019-05-17T18:43:16.405Z,99601.41
2019-05-17T18:45:44.609Z,99602.79
2019-05-17T18:48:12.854Z,99601.43
2019-05-17T18:50:41.006Z,99606.27
2019-05-17T18:53:16.489Z,99607.38
2019-05-17T18:55:39.157Z,99605.27
2019-05-17T18:58:07.346Z,99610.22
2019-05-17T19:00:35.725Z,99616.95
2019-05-17T19:03:03.883Z,99612.19
2019-05-17T19:05:31.998Z,99619.13
2019-05-17T19:08:00.123Z,99624.51
2019-05-17T19:10:28.462Z,99636.71
2019-05-17T19:12:56.561Z,99634.55
2019-05-17T19:15:24.811Z,99632.25
2019-05-17T19:17:52.975Z,99636.80
2019-05-17T19:20:21.151Z,99636.80
2019-05-17T19:22:49.515Z,99626.67
2019-05-17T19:25:18.289Z,99632.39
2019-05-17T19:27:46.498Z,99638.50
2019-05-17T19:30:17.037Z,99637.28
2019-05-17T19:32:45.231Z,99638.06
2019-05-17T19:35:13.571Z,99641.80
2019-05-17T19:37:41.719Z,99645.72
2019-05-17T19:40:10.461Z,99645.72
2019-05-17T19:42:38.580Z,99646.52
2019-05-17T19:45:07.550Z,99640.70
2019-05-17T19:47:35.723Z,99643.34
2019-05-17T19:50:04.176Z,99644.20
2019-05-17T19:52:32.291Z,99643.64
2019-05-17T19:55:00.416Z,99646.58
2019-05-17T19:57:28.611Z,99642.58
2019-05-17T19:59:56.754Z,99644.78
2019-05-17T20:02:24.935Z,99643.72
2019-05-17T20:04:53.081Z,99645.06
2019-05-17T20:07:21.296Z,99648.63
2019-05-17T20:09:49.474Z,99642.37
2019-05-17T20:12:17.582Z,99643.55
2019-05-17T20:14:45.770Z,99646.41
2019-05-17T20:17:14.056Z,99645.45
2019-05-17T20:19:42.291Z,99646.30
2019-05-17T20:22:10.417Z,99642.66
2019-05-17T20:24:38.530Z,99636.48
2019-05-17T20:27:06.727Z,99637.77
2019-05-17T20:29:34.821Z,99638.34
2019-05-17T20:32:03.356Z,99634.70
2019-05-17T20:34:31.688Z,99636.37
2019-05-17T20:37:00.731Z,99631.64
2019-05-17T20:39:28.954Z,99631.71
2019-05-17T20:41:57.604Z,99624.78
2019-05-17T20:44:25.819Z,99624.67
2019-05-17T20:46:53.996Z,99625.31
2019-05-17T20:49:22.136Z,99619.12
2019-05-17T20:51:50.306Z,99613.15
2019-05-17T20:54:18.484Z,99623.48
2019-05-17T20:56:46.576Z,99616.17
2019-05-17T20:59:14.707Z,99623.10
2019-05-17T21:01:42.836Z,99616.16
2019-05-17T21:04:11.095Z,99617.34
2019-05-17T21:06:39.439Z,99612.70
2019-05-17T21:09:08.472Z,99612.45
2019-05-17T21:11:36.708Z,99622.00
2019-05-17T21:14:04.836Z,99620.75
2019-05-17T21:16:33.044Z,99620.55
2019-05-17T21:19:01.437Z,99617.95
2019-05-17T21:21:29.670Z,99621.91
2019-05-17T21:23:57.817Z,99620.13
2019-05-17T21:26:25.995Z,99621.23
2019-05-17T21:28:54.140Z,99620.40
2019-05-17T21:31:22.343Z,99620.02
2019-05-17T21:33:50.753Z,99622.08
2019-05-17T21:36:18.966Z,99622.48
2019-05-17T21:38:47.178Z,99620.75
2019-05-17T21:41:15.334Z,99623.33
2019-05-17T21:43:43.664Z,99623.02
2019-05-17T21:46:11.860Z,99628.94
2019-05-17T21:48:40.027Z,99620.45
2019-05-17T21:51:15.604Z,99610.94
2019-05-17T21:53:43.775Z,99615.20
2019-05-17T21:56:11.965Z,99619.92
2019-05-17T21:58:40.165Z,99617.09
2019-05-17T22:01:19.071Z,99623.12
2019-05-17T22:03:47.423Z,99619.11
2019-05-17T22:06:15.589Z,99620.98
2019-05-17T22:08:43.804Z,99625.80
2019-05-17T22:11:11.940Z,99624.23
2019-05-17T22:13:40.047Z,99623.74
2019-05-17T22:16:18.961Z,99620.48
2019-05-17T22:18:38.211Z,99617.96
2019-05-17T22:21:06.470Z,99621.16
2019-05-17T22:23:34.587Z,99619.02
2019-05-17T22:26:02.793Z,99620.09
2019-05-17T22:28:30.981Z,99618.59
2019-05-17T22:30:59.067Z,99614.40
2019-05-17T22:33:27.335Z,99622.84
2019-05-17T22:35:55.459Z,99613.36
2019-05-17T22:38:23.609Z,99613.25
2019-05-17T22:40:51.911Z,99609.65
2019-05-17T22:43:20.037Z,99606.73
2019-05-17T22:45:48.182Z,99603.26
2019-05-17T22:48:16.281Z,99604.80
2019-05-17T22:50:45.277Z,99605.48
2019-05-17T22:53:13.631Z,99600.39
2019-05-17T22:55:41.765Z,99599.88
2019-05-17T22:58:09.895Z,99589.33
2019-05-17T23:00:38.019Z,99587.72
2019-05-17T23:03:06.169Z,99586.47
2019-05-17T23:05:34.393Z,99590.11
2019-05-17T23:08:02.487Z,99587.25
2019-05-17T23:10:30.649Z,99591.45
2019-05-17T23:12:58.775Z,99586.31
2019-05-17T23:15:29.121Z,99581.73
2019-05-17T23:17:57.313Z,99581.44
2019-05-17T23:20:25.495Z,99586.17
2019-05-17T23:22:53.615Z,99581.92
2019-05-17T23:25:21.752Z,99578.58
2019-05-17T23:27:49.929Z,99569.81
2019-05-17T23:30:18.054Z,99573.91
2019-05-17T23:32:46.201Z,99569.67
2019-05-17T23:35:14.322Z,99566.19
2019-05-17T23:37:42.514Z,99563.31
2019-05-17T23:40:10.850Z,99571.61
2019-05-17T23:42:39.010Z,99561.84
2019-05-17T23:45:07.944Z,99561.17
2019-05-17T23:47:36.064Z,99563.98
2019-05-17T23:50:04.810Z,99560.00
2019-05-17T23:52:32.993Z,99561.47
2019-05-17T23:55:01.168Z,99559.78
2019-05-17T23:57:29.263Z,99564.26
2019-05-17T23:59:57.377Z,99563.48
